sensor_id;sensor_type;location;lat;lon;timestamp;pressure;altitude;pressure_sealevel;temperature;humidity
11987;BME280;6053;51.382;6.768;2022-11-20T00:01:36;100902.88;;;8.16;97.19
11987;BME280;6053;51.382;6.768;2022-11-20T00:04:05;100899.28;;;8.16;97.60
11987;BME280;6053;51.382;6.768;2022-11-20T00:06:34;100885.97;;;8.19;97.58
11987;BME280;6053;51.382;6.768;2022-11-20T00:09:03;100895.72;;;8.15;97.41
11987;BME280;6053;51.382;6.768;2022-11-20T00:11:32;100897.81;;;8.20;96.86
11987;BME280;6053;51.382;6.768;2022-11-20T00:14:02;100893.97;;;8.21;97.36
11987;BME280;6053;51.382;6.768;2022-11-20T00:16:32;100886.81;;;8.26;96.89
11987;BME280;6053;51.382;6.768;2022-11-20T00:19:00;100896.13;;;8.25;96.87
11987;BME280;6053;51.382;6.768;2022-11-20T00:21:29;100890.63;;;8.19;97.06
11987;BME280;6053;51.382;6.768;2022-11-20T00:23:59;100893.97;;;8.21;97.09
11987;BME280;6053;51.382;6.768;2022-11-20T00:26:28;100893.97;;;8.21;97.27
11987;BME280;6053;51.382;6.768;2022-11-20T00:28:59;100891.88;;;8.23;96.94
11987;BME280;6053;51.382;6.768;2022-11-20T00:31:29;100888.50;;;8.21;96.90
11987;BME280;6053;51.382;6.768;2022-11-20T00:33:57;100893.38;;;8.19;97.22
11987;BME280;6053;51.382;6.768;2022-11-20T00:36:27;100897.81;;;8.13;96.95
11987;BME280;6053;51.382;6.768;2022-11-20T00:38:58;100887.03;;;8.18;97.32
11987;BME280;6053;51.382;6.768;2022-11-20T00:41:28;100885.97;;;8.19;96.86
11987;BME280;6053;51.382;6.768;2022-11-20T00:43:57;100883.84;;;8.21;96.45
11987;BME280;6053;51.382;6.768;2022-11-20T00:46:27;100884.69;;;8.22;96.85
11987;BME280;6053;51.382;6.768;2022-11-20T00:48:57;100887.88;;;8.19;97.04
11987;BME280;6053;51.382;6.768;2022-11-20T00:51:27;100885.13;;;8.19;97.16
11987;BME280;6053;51.382;6.768;2022-11-20T00:53:56;100888.47;;;8.27;96.29
11987;BME280;6053;51.382;6.768;2022-11-20T00:56:26;100885.94;;;8.33;96.06
11987;BME280;6053;51.382;6.768;2022-11-20T00:58:55;100876.66;;;8.27;96.20
11987;BME280;6053;51.382;6.768;2022-11-20T01:01:25;100882.78;;;8.29;96.66
11987;BME280;6053;51.382;6.768;2022-11-20T01:03:59;100876.22;;;8.30;96.27
11987;BME280;6053;51.382;6.768;2022-11-20T01:06:30;100869.66;;;8.31;95.78
11987;BME280;6053;51.382;6.768;2022-11-20T01:09:01;100873.06;;;8.26;96.06
11987;BME280;6053;51.382;6.768;2022-11-20T01:11:33;100863.31;;;8.31;95.88
11987;BME280;6053;51.382;6.768;2022-11-20T01:14:05;100860.16;;;8.27;96.00
11987;BME280;6053;51.382;6.768;2022-11-20T01:16:36;100856.13;;;8.30;96.45
11987;BME280;6053;51.382;6.768;2022-11-20T01:19:08;100854.66;;;8.20;96.81
11987;BME280;6053;51.382;6.768;2022-11-20T01:21:45;100855.34;;;8.09;91.30
11987;BME280;6053;51.382;6.768;2022-11-20T01:24:17;100851.75;;;7.95;97.42
11987;BME280;6053;51.382;6.768;2022-11-20T01:26:50;100851.75;;;8.09;97.20
11987;BME280;6053;51.382;6.768;2022-11-20T01:29:21;100860.19;;;7.61;94.79
11987;BME280;6053;51.382;6.768;2022-11-20T01:31:50;100854.69;;;8.14;97.37
11987;BME280;6053;51.382;6.768;2022-11-20T01:34:21;100864.19;;;8.04;95.77
11987;BME280;6053;51.382;6.768;2022-11-20T01:36:51;100869.06;;;8.22;96.39
11987;BME280;6053;51.382;6.768;2022-11-20T01:39:22;100865.88;;;8.25;96.40
11987;BME280;6053;51.382;6.768;2022-11-20T01:41:54;100866.72;;;8.33;95.89
11987;BME280;6053;51.382;6.768;2022-11-20T01:44:54;100864.16;;;8.31;96.39
11987;BME280;6053;51.382;6.768;2022-11-20T01:47:31;100862.47;;;8.30;96.16
11987;BME280;6053;51.382;6.768;2022-11-20T01:50:05;100858.06;;;8.29;95.92
11987;BME280;6053;51.382;6.768;2022-11-20T01:52:42;100853.00;;;8.13;96.89
11987;BME280;6053;51.382;6.768;2022-11-20T01:55:18;100855.31;;;8.22;96.59
11987;BME280;6053;51.382;6.768;2022-11-20T01:57:48;100855.94;;;8.24;96.20
11987;BME280;6053;51.382;6.768;2022-11-20T02:00:19;100856.34;;;8.21;97.06
11987;BME280;6053;51.382;6.768;2022-11-20T02:02:53;100849.81;;;8.22;97.19
11987;BME280;6053;51.382;6.768;2022-11-20T02:05:28;100839.00;;;8.27;96.54
11987;BME280;6053;51.382;6.768;2022-11-20T02:07:59;100845.16;;;8.30;96.42
11987;BME280;6053;51.382;6.768;2022-11-20T02:10:28;100849.38;;;8.25;96.31
11987;BME280;6053;51.382;6.768;2022-11-20T02:12:59;100851.72;;;8.29;96.63
11987;BME280;6053;51.382;6.768;2022-11-20T02:15:45;100839.00;;;8.34;96.54
11987;BME280;6053;51.382;6.768;2022-11-20T02:18:16;100838.81;;;8.22;96.73
11987;BME280;6053;51.382;6.768;2022-11-20T02:20:48;100839.66;;;8.30;97.17
11987;BME280;6053;51.382;6.768;2022-11-20T02:23:23;100827.41;;;8.25;96.61
11987;BME280;6053;51.382;6.768;2022-11-20T02:25:55;100822.50;;;8.34;96.46
11987;BME280;6053;51.382;6.768;2022-11-20T02:28:26;100825.91;;;8.36;96.39
11987;BME280;6053;51.382;6.768;2022-11-20T02:30:54;100826.34;;;8.20;97.03
11987;BME280;6053;51.382;6.768;2022-11-20T02:33:22;100826.97;;;8.29;96.81
11987;BME280;6053;51.382;6.768;2022-11-20T02:35:51;100824.28;;;8.09;97.48
11987;BME280;6053;51.382;6.768;2022-11-20T02:38:19;100825.28;;;8.14;97.91
11987;BME280;6053;51.382;6.768;2022-11-20T02:40:48;100828.25;;;8.19;97.35
11987;BME280;6053;51.382;6.768;2022-11-20T02:43:23;100822.34;;;8.22;97.46
11987;BME280;6053;51.382;6.768;2022-11-20T02:45:51;100823.34;;;8.28;97.30
11987;BME280;6053;51.382;6.768;2022-11-20T02:48:20;100822.75;;;8.26;97.29
11987;BME280;6053;51.382;6.768;2022-11-20T02:50:51;100819.19;;;8.12;97.53
11987;BME280;6053;51.382;6.768;2022-11-20T02:53:19;100823.38;;;8.15;98.23
11987;BME280;6053;51.382;6.768;2022-11-20T02:55:47;100813.28;;;8.09;95.73
11987;BME280;6053;51.382;6.768;2022-11-20T02:58:16;100824.69;;;8.06;97.85
11987;BME280;6053;51.382;6.768;2022-11-20T03:00:46;100808.81;;;8.14;97.97
11987;BME280;6053;51.382;6.768;2022-11-20T03:03:14;100818.53;;;8.17;98.30
11987;BME280;6053;51.382;6.768;2022-11-20T03:05:42;100806.03;;;8.21;96.91
11987;BME280;6053;51.382;6.768;2022-11-20T03:08:11;100807.75;;;8.22;97.66
11987;BME280;6053;51.382;6.768;2022-11-20T03:10:39;100806.75;;;7.96;93.04
11987;BME280;6053;51.382;6.768;2022-11-20T03:13:07;100809.03;;;8.13;96.29
11987;BME280;6053;51.382;6.768;2022-11-20T03:15:36;100814.13;;;8.09;96.81
11987;BME280;6053;51.382;6.768;2022-11-20T03:18:06;100809.25;;;8.11;98.61
11987;BME280;6053;51.382;6.768;2022-11-20T03:20:34;100812.63;;;8.20;98.16
11987;BME280;6053;51.382;6.768;2022-11-20T03:23:03;100817.03;;;8.21;98.00
11987;BME280;6053;51.382;6.768;2022-11-20T03:25:31;100817.47;;;8.18;98.33
11987;BME280;6053;51.382;6.768;2022-11-20T03:28:00;100815.34;;;8.26;98.27
11987;BME280;6053;51.382;6.768;2022-11-20T03:30:28;100802.41;;;8.34;97.63
11987;BME280;6053;51.382;6.768;2022-11-20T03:32:57;100806.25;;;8.33;97.64
11987;BME280;6053;51.382;6.768;2022-11-20T03:35:26;100814.50;;;8.39;97.39
11987;BME280;6053;51.382;6.768;2022-11-20T03:37:55;100809.41;;;8.43;97.05
11987;BME280;6053;51.382;6.768;2022-11-20T03:40:23;100804.56;;;8.32;97.38
11987;BME280;6053;51.382;6.768;2022-11-20T03:42:51;100810.69;;;8.27;97.83
11987;BME280;6053;51.382;6.768;2022-11-20T03:45:20;100810.91;;;8.25;98.01
11987;BME280;6053;51.382;6.768;2022-11-20T03:47:48;100800.09;;;8.31;97.42
11987;BME280;6053;51.382;6.768;2022-11-20T03:50:17;100797.59;;;8.29;98.01
11987;BME280;6053;51.382;6.768;2022-11-20T03:52:47;100791.25;;;8.29;98.29
11987;BME280;6053;51.382;6.768;2022-11-20T03:55:15;100797.56;;;8.36;97.23
11987;BME280;6053;51.382;6.768;2022-11-20T03:57:43;100794.81;;;8.36;97.74
11987;BME280;6053;51.382;6.768;2022-11-20T04:02:42;100797.16;;;8.32;97.81
11987;BME280;6053;51.382;6.768;2022-11-20T04:05:10;100790.19;;;8.30;97.97
11987;BME280;6053;51.382;6.768;2022-11-20T04:07:38;100781.94;;;8.30;98.08
11987;BME280;6053;51.382;6.768;2022-11-20T04:10:09;100791.22;;;8.35;97.90
11987;BME280;6053;51.382;6.768;2022-11-20T04:12:37;100789.31;;;8.36;97.65
11987;BME280;6053;51.382;6.768;2022-11-20T04:15:06;100784.84;;;8.35;97.29
11987;BME280;6053;51.382;6.768;2022-11-20T04:17:35;100783.63;;;8.31;98.20
11987;BME280;6053;51.382;6.768;2022-11-20T04:20:04;100783.44;;;8.39;97.60
11987;BME280;6053;51.382;6.768;2022-11-20T04:22:33;100791.00;;;8.37;97.70
11987;BME280;6053;51.382;6.768;2022-11-20T04:25:01;100791.66;;;8.32;98.33
11987;BME280;6053;51.382;6.768;2022-11-20T04:27:32;100787.41;;;8.36;96.94
11987;BME280;6053;51.382;6.768;2022-11-20T04:30:00;100790.59;;;8.26;98.40
11987;BME280;6053;51.382;6.768;2022-11-20T04:32:28;100798.88;;;8.20;98.92
11987;BME280;6053;51.382;6.768;2022-11-20T04:34:57;100792.09;;;8.22;98.94
11987;BME280;6053;51.382;6.768;2022-11-20T04:37:25;100788.69;;;8.27;98.70
11987;BME280;6053;51.382;6.768;2022-11-20T04:39:53;100789.34;;;8.29;98.70
11987;BME280;6053;51.382;6.768;2022-11-20T04:42:22;100796.31;;;8.32;98.35
11987;BME280;6053;51.382;6.768;2022-11-20T04:44:57;100792.72;;;8.24;98.98
11987;BME280;6053;51.382;6.768;2022-11-20T04:47:26;100810.72;;;8.14;98.65
11987;BME280;6053;51.382;6.768;2022-11-20T04:49:54;100792.28;;;8.27;99.25
11987;BME280;6053;51.382;6.768;2022-11-20T04:52:23;100795.03;;;8.27;99.31
11987;BME280;6053;51.382;6.768;2022-11-20T04:54:51;100785.94;;;8.34;99.23
11987;BME280;6053;51.382;6.768;2022-11-20T04:57:20;100790.59;;;8.40;98.84
11987;BME280;6053;51.382;6.768;2022-11-20T04:59:49;100786.56;;;8.42;98.15
11987;BME280;6053;51.382;6.768;2022-11-20T05:02:19;100789.94;;;8.44;98.41
11987;BME280;6053;51.382;6.768;2022-11-20T05:04:48;100787.41;;;8.36;99.12
11987;BME280;6053;51.382;6.768;2022-11-20T05:07:17;100792.25;;;8.34;99.29
11987;BME280;6053;51.382;6.768;2022-11-20T05:09:45;100792.91;;;8.36;98.98
11987;BME280;6053;51.382;6.768;2022-11-20T05:12:14;100791.44;;;8.40;98.91
11987;BME280;6053;51.382;6.768;2022-11-20T05:14:42;100793.34;;;8.40;98.96
11987;BME280;6053;51.382;6.768;2022-11-20T05:17:11;100794.00;;;8.42;98.36
11987;BME280;6053;51.382;6.768;2022-11-20T05:19:41;100793.34;;;8.40;98.98
11987;BME280;6053;51.382;6.768;2022-11-20T05:22:09;100796.75;;;8.29;99.60
11987;BME280;6053;51.382;6.768;2022-11-20T05:24:37;100792.06;;;8.42;99.08
11987;BME280;6053;51.382;6.768;2022-11-20T05:27:06;100795.00;;;8.34;99.83
11987;BME280;6053;51.382;6.768;2022-11-20T05:29:34;100788.03;;;8.38;99.43
11987;BME280;6053;51.382;6.768;2022-11-20T05:32:03;100794.81;;;8.36;99.40
11987;BME280;6053;51.382;6.768;2022-11-20T05:34:32;100790.78;;;8.38;99.10
11987;BME280;6053;51.382;6.768;2022-11-20T05:37:02;100787.00;;;8.39;99.18
11987;BME280;6053;51.382;6.768;2022-11-20T05:39:31;100787.84;;;8.40;99.02
11987;BME280;6053;51.382;6.768;2022-11-20T05:41:59;100782.09;;;8.35;99.65
11987;BME280;6053;51.382;6.768;2022-11-20T05:44:45;100779.38;;;8.41;99.49
11987;BME280;6053;51.382;6.768;2022-11-20T05:47:13;100782.53;;;8.45;99.28
11987;BME280;6053;51.382;6.768;2022-11-20T05:49:42;100779.16;;;8.43;99.29
11987;BME280;6053;51.382;6.768;2022-11-20T05:52:11;100789.94;;;8.44;99.26
11987;BME280;6053;51.382;6.768;2022-11-20T05:54:40;100790.16;;;8.43;99.41
11987;BME280;6053;51.382;6.768;2022-11-20T05:57:08;100781.91;;;8.49;99.04
11987;BME280;6053;51.382;6.768;2022-11-20T05:59:36;100783.13;;;8.54;98.41
11987;BME280;6053;51.382;6.768;2022-11-20T06:02:05;100779.16;;;8.49;99.19
11987;BME280;6053;51.382;6.768;2022-11-20T06:04:33;100781.50;;;8.39;99.35
11987;BME280;6053;51.382;6.768;2022-11-20T06:07:02;100783.84;;;8.42;99.55
11987;BME280;6053;51.382;6.768;2022-11-20T06:09:32;100780.84;;;8.44;99.28
11987;BME280;6053;51.382;6.768;2022-11-20T06:12:00;100787.59;;;8.48;99.29
11987;BME280;6053;51.382;6.768;2022-11-20T06:14:29;100782.72;;;8.50;99.12
11987;BME280;6053;51.382;6.768;2022-11-20T06:16:57;100782.34;;;8.40;99.49
11987;BME280;6053;51.382;6.768;2022-11-20T06:19:25;100770.53;;;8.26;99.86
11987;BME280;6053;51.382;6.768;2022-11-20T06:21:54;100773.06;;;8.21;100.00
11987;BME280;6053;51.382;6.768;2022-11-20T06:24:22;100773.47;;;8.24;100.00
11987;BME280;6053;51.382;6.768;2022-11-20T06:26:53;100778.09;;;8.37;99.97
11987;BME280;6053;51.382;6.768;2022-11-20T06:29:22;100779.34;;;8.48;99.57
11987;BME280;6053;51.382;6.768;2022-11-20T06:31:54;100782.16;;;8.21;100.00
11987;BME280;6053;51.382;6.768;2022-11-20T06:34:23;100780.69;;;8.25;100.00
11987;BME280;6053;51.382;6.768;2022-11-20T06:36:51;100784.91;;;8.21;100.00
11987;BME280;6053;51.382;6.768;2022-11-20T06:39:19;100796.34;;;8.18;100.00
11987;BME280;6053;51.382;6.768;2022-11-20T06:41:48;100794.03;;;8.22;100.00
11987;BME280;6053;51.382;6.768;2022-11-20T06:44:25;100788.25;;;8.37;100.00
11987;BME280;6053;51.382;6.768;2022-11-20T06:46:54;100788.91;;;8.32;100.00
11987;BME280;6053;51.382;6.768;2022-11-20T06:49:22;100795.88;;;8.41;100.00
11987;BME280;6053;51.382;6.768;2022-11-20T06:51:51;100801.59;;;8.40;100.00
11987;BME280;6053;51.382;6.768;2022-11-20T06:54:19;100793.81;;;8.17;100.00
11987;BME280;6053;51.382;6.768;2022-11-20T06:56:48;100797.59;;;8.29;100.00
11987;BME280;6053;51.382;6.768;2022-11-20T06:59:16;100794.44;;;8.25;100.00
11987;BME280;6053;51.382;6.768;2022-11-20T07:01:46;100790.25;;;8.03;100.00
11987;BME280;6053;51.382;6.768;2022-11-20T07:04:14;100792.28;;;8.27;100.00
11987;BME280;6053;51.382;6.768;2022-11-20T07:06:43;100801.81;;;8.32;100.00
11987;BME280;6053;51.382;6.768;2022-11-20T07:09:11;100800.13;;;8.17;100.00
11987;BME280;6053;51.382;6.768;2022-11-20T07:11:40;100808.81;;;8.14;100.00
11987;BME280;6053;51.382;6.768;2022-11-20T07:14:08;100812.63;;;8.20;100.00
11987;BME280;6053;51.382;6.768;2022-11-20T07:16:36;100813.44;;;8.20;100.00
11987;BME280;6053;51.382;6.768;2022-11-20T07:19:06;100805.41;;;8.32;100.00
11987;BME280;6053;51.382;6.768;2022-11-20T07:21:34;100813.41;;;8.34;100.00
11987;BME280;6053;51.382;6.768;2022-11-20T07:24:04;100805.41;;;8.39;100.00
11987;BME280;6053;51.382;6.768;2022-11-20T07:26:32;100805.19;;;8.40;100.00
11987;BME280;6053;51.382;6.768;2022-11-20T07:29:00;100812.56;;;8.46;100.00
11987;BME280;6053;51.382;6.768;2022-11-20T07:31:29;100808.97;;;8.46;100.00
11987;BME280;6053;51.382;6.768;2022-11-20T07:33:57;100801.34;;;8.48;100.00
11987;BME280;6053;51.382;6.768;2022-11-20T07:36:27;100800.94;;;8.38;100.00
11987;BME280;6053;51.382;6.768;2022-11-20T07:38:55;100796.72;;;8.35;100.00
11987;BME280;6053;51.382;6.768;2022-11-20T07:41:23;100803.53;;;8.19;100.00
11987;BME280;6053;51.382;6.768;2022-11-20T07:43:52;100806.69;;;8.23;100.00
11987;BME280;6053;51.382;6.768;2022-11-20T07:46:20;100798.19;;;8.38;100.00
11987;BME280;6053;51.382;6.768;2022-11-20T07:48:48;100797.16;;;8.39;100.00
11987;BME280;6053;51.382;6.768;2022-11-20T07:51:17;100790.59;;;8.33;100.00
11987;BME280;6053;51.382;6.768;2022-11-20T07:53:47;100793.63;;;8.12;100.00
11987;BME280;6053;51.382;6.768;2022-11-20T07:56:15;100785.53;;;8.30;100.00
11987;BME280;6053;51.382;6.768;2022-11-20T07:58:43;100791.44;;;8.40;100.00
11987;BME280;6053;51.382;6.768;2022-11-20T08:01:12;100786.34;;;8.44;100.00
11987;BME280;6053;51.382;6.768;2022-11-20T08:03:40;100784.03;;;8.41;100.00
11987;BME280;6053;51.382;6.768;2022-11-20T08:06:08;100783.44;;;8.25;100.00
11987;BME280;6053;51.382;6.768;2022-11-20T08:08:37;100783.22;;;8.20;100.00
11987;BME280;6053;51.382;6.768;2022-11-20T08:11:10;100775.63;;;8.16;100.00
11987;BME280;6053;51.382;6.768;2022-11-20T08:13:56;100785.00;;;7.95;100.00
11987;BME280;6053;51.382;6.768;2022-11-20T08:16:45;100782.78;;;8.23;100.00
11987;BME280;6053;51.382;6.768;2022-11-20T08:19:14;100792.69;;;8.44;100.00
11987;BME280;6053;51.382;6.768;2022-11-20T08:21:43;100787.41;;;8.36;100.00
11987;BME280;6053;51.382;6.768;2022-11-20T08:24:12;100796.09;;;8.33;100.00
11987;BME280;6053;51.382;6.768;2022-11-20T08:26:42;100801.88;;;8.12;100.00
11987;BME280;6053;51.382;6.768;2022-11-20T08:29:10;100792.50;;;8.33;100.00
11987;BME280;6053;51.382;6.768;2022-11-20T08:31:39;100792.06;;;8.49;100.00
11987;BME280;6053;51.382;6.768;2022-11-20T08:34:09;100801.13;;;8.56;100.00
11987;BME280;6053;51.382;6.768;2022-11-20T08:36:45;100786.94;;;8.59;100.00
11987;BME280;6053;51.382;6.768;2022-11-20T08:39:14;100795.13;;;8.72;100.00
11987;BME280;6053;51.382;6.768;2022-11-20T08:41:43;100800.16;;;8.82;100.00
11987;BME280;6053;51.382;6.768;2022-11-20T08:44:12;100803.38;;;8.72;100.00
11987;BME280;6053;51.382;6.768;2022-11-20T08:46:42;100796.03;;;8.53;97.40
11987;BME280;6053;51.382;6.768;2022-11-20T08:49:12;100795.34;;;8.64;100.00
11987;BME280;6053;51.382;6.768;2022-11-20T08:51:41;100789.03;;;8.57;100.00
11987;BME280;6053;51.382;6.768;2022-11-20T08:54:10;100806.63;;;8.49;100.00
11987;BME280;6053;51.382;6.768;2022-11-20T08:56:38;100803.00;;;8.62;100.00
11987;BME280;6053;51.382;6.768;2022-11-20T08:59:08;100804.28;;;8.53;100.00
11987;BME280;6053;51.382;6.768;2022-11-20T09:01:56;100799.69;;;8.34;99.95
11987;BME280;6053;51.382;6.768;2022-11-20T09:04:25;100798.34;;;8.63;100.00
11987;BME280;6053;51.382;6.768;2022-11-20T09:06:53;100796.78;;;8.73;100.00
11987;BME280;6053;51.382;6.768;2022-11-20T09:09:22;100792.88;;;8.56;100.00
11987;BME280;6053;51.382;6.768;2022-11-20T09:11:50;100786.75;;;8.47;100.00
11987;BME280;6053;51.382;6.768;2022-11-20T09:14:20;100785.19;;;8.65;100.00
11987;BME280;6053;51.382;6.768;2022-11-20T09:16:51;100782.50;;;8.52;99.15
11987;BME280;6053;51.382;6.768;2022-11-20T09:19:20;100773.34;;;8.64;100.00
11987;BME280;6053;51.382;6.768;2022-11-20T09:22:03;100773.81;;;8.55;100.00
11987;BME280;6053;51.382;6.768;2022-11-20T09:24:32;100772.22;;;8.27;96.84
11987;BME280;6053;51.382;6.768;2022-11-20T09:27:03;100764.97;;;8.53;99.63
11987;BME280;6053;51.382;6.768;2022-11-20T09:29:33;100769.25;;;8.35;100.00
11987;BME280;6053;51.382;6.768;2022-11-20T09:32:01;100769.38;;;7.75;98.20
11987;BME280;6053;51.382;6.768;2022-11-20T09:34:30;100766.34;;;8.10;100.00
11987;BME280;6053;51.382;6.768;2022-11-20T09:36:58;100763.53;;;8.30;100.00
11987;BME280;6053;51.382;6.768;2022-11-20T09:39:32;100760.66;;;8.12;100.00
11987;BME280;6053;51.382;6.768;2022-11-20T09:42:25;100759.94;;;8.43;100.00
11987;BME280;6053;51.382;6.768;2022-11-20T09:45:19;100763.50;;;8.37;100.00
11987;BME280;6053;51.382;6.768;2022-11-20T09:48:18;100761.16;;;7.75;100.00
11987;BME280;6053;51.382;6.768;2022-11-20T09:50:54;100769.38;;;7.75;100.00
11987;BME280;6053;51.382;6.768;2022-11-20T09:53:39;100759.81;;;7.91;100.00
11987;BME280;6053;51.382;6.768;2022-11-20T09:56:20;100750.44;;;8.32;100.00
11987;BME280;6053;51.382;6.768;2022-11-20T09:58:51;100752.00;;;8.66;100.00
11987;BME280;6053;51.382;6.768;2022-11-20T10:01:26;100759.09;;;8.42;97.82
11987;BME280;6053;51.382;6.768;2022-11-20T10:03:59;100770.03;;;7.38;100.00
11987;BME280;6053;51.382;6.768;2022-11-20T10:06:32;100768.72;;;7.80;100.00
11987;BME280;6053;51.382;6.768;2022-11-20T10:09:13;100750.31;;;8.00;100.00
11987;BME280;6053;51.382;6.768;2022-11-20T10:11:56;100746.09;;;7.98;100.00
11987;BME280;6053;51.382;6.768;2022-11-20T10:14:38;100751.03;;;8.34;100.00
11987;BME280;6053;51.382;6.768;2022-11-20T10:17:19;100745.13;;;8.31;100.00
11987;BME280;6053;51.382;6.768;2022-11-20T10:20:10;100744.47;;;7.44;100.00
11987;BME280;6053;51.382;6.768;2022-11-20T10:22:52;100733.91;;;7.47;100.00
11987;BME280;6053;51.382;6.768;2022-11-20T10:25:37;100733.69;;;7.75;100.00
11987;BME280;6053;51.382;6.768;2022-11-20T10:28:19;100723.34;;;7.57;100.00
11987;BME280;6053;51.382;6.768;2022-11-20T10:30:57;100722.19;;;8.12;100.00
11987;BME280;6053;51.382;6.768;2022-11-20T10:33:34;100715.31;;;8.41;100.00
11987;BME280;6053;51.382;6.768;2022-11-20T10:36:27;100712.28;;;8.87;100.00
11987;BME280;6053;51.382;6.768;2022-11-20T10:39:01;100709.84;;;7.56;99.75
11987;BME280;6053;51.382;6.768;2022-11-20T10:41:37;100701.63;;;7.49;100.00
11987;BME280;6053;51.382;6.768;2022-11-20T10:44:14;100693.13;;;7.64;100.00
11987;BME280;6053;51.382;6.768;2022-11-20T10:47:04;100699.06;;;8.26;100.00
11987;BME280;6053;51.382;6.768;2022-11-20T10:49:35;100700.84;;;8.07;100.00
11987;BME280;6053;51.382;6.768;2022-11-20T10:52:11;100695.34;;;8.07;100.00
11987;BME280;6053;51.382;6.768;2022-11-20T10:54:47;100695.16;;;8.54;100.00
11987;BME280;6053;51.382;6.768;2022-11-20T10:57:30;100696.47;;;7.93;100.00
11987;BME280;6053;51.382;6.768;2022-11-20T11:00:05;100695.38;;;8.52;100.00
11987;BME280;6053;51.382;6.768;2022-11-20T11:02:39;100688.69;;;8.73;100.00
11987;BME280;6053;51.382;6.768;2022-11-20T11:05:18;100679.41;;;8.99;100.00
11987;BME280;6053;51.382;6.768;2022-11-20T11:07:50;100683.97;;;7.97;99.02
11987;BME280;6053;51.382;6.768;2022-11-20T11:10:27;100682.25;;;7.24;100.00
11987;BME280;6053;51.382;6.768;2022-11-20T11:12:59;100675.63;;;7.65;100.00
11987;BME280;6053;51.382;6.768;2022-11-20T11:15:36;100663.25;;;8.01;100.00
11987;BME280;6053;51.382;6.768;2022-11-20T11:18:06;100662.09;;;7.70;100.00
11987;BME280;6053;51.382;6.768;2022-11-20T11:20:38;100665.91;;;7.69;100.00
11987;BME280;6053;51.382;6.768;2022-11-20T11:23:32;100659.63;;;7.49;100.00
11987;BME280;6053;51.382;6.768;2022-11-20T11:26:04;100643.75;;;7.57;100.00
11987;BME280;6053;51.382;6.768;2022-11-20T11:28:34;100638.25;;;7.51;100.00
11987;BME280;6053;51.382;6.768;2022-11-20T11:31:02;100630.03;;;7.51;100.00
11987;BME280;6053;51.382;6.768;2022-11-20T11:33:32;100620.81;;;7.19;100.00
11987;BME280;6053;51.382;6.768;2022-11-20T11:36:15;100612.91;;;7.62;100.00
11987;BME280;6053;51.382;6.768;2022-11-20T11:38:44;100613.41;;;7.39;100.00
11987;BME280;6053;51.382;6.768;2022-11-20T11:41:17;100604.72;;;7.49;100.00
11987;BME280;6053;51.382;6.768;2022-11-20T11:43:52;100604.53;;;7.37;100.00
11987;BME280;6053;51.382;6.768;2022-11-20T11:46:53;100603.38;;;7.71;100.00
11987;BME280;6053;51.382;6.768;2022-11-20T11:49:23;100596.66;;;8.06;100.00
11987;BME280;6053;51.382;6.768;2022-11-20T11:52:05;100591.34;;;8.49;100.00
11987;BME280;6053;51.382;6.768;2022-11-20T11:54:41;100589.94;;;8.01;100.00
11987;BME280;6053;51.382;6.768;2022-11-20T11:57:20;100580.22;;;7.99;100.00
11987;BME280;6053;51.382;6.768;2022-11-20T12:00:02;100579.03;;;7.17;100.00
11987;BME280;6053;51.382;6.768;2022-11-20T12:02:38;100580.16;;;6.69;100.00
11987;BME280;6053;51.382;6.768;2022-11-20T12:05:17;100590.22;;;7.28;100.00
11987;BME280;6053;51.382;6.768;2022-11-20T12:07:52;100577.72;;;8.29;100.00
11987;BME280;6053;51.382;6.768;2022-11-20T12:10:38;100580.81;;;8.71;100.00
11987;BME280;6053;51.382;6.768;2022-11-20T12:13:26;100577.75;;;8.86;100.00
11987;BME280;6053;51.382;6.768;2022-11-20T12:15:59;100573.34;;;8.15;100.00
11987;BME280;6053;51.382;6.768;2022-11-20T12:18:29;100559.31;;;7.46;100.00
11987;BME280;6053;51.382;6.768;2022-11-20T12:21:10;100568.00;;;7.95;100.00
11987;BME280;6053;51.382;6.768;2022-11-20T12:24:06;100558.38;;;7.72;100.00
11987;BME280;6053;51.382;6.768;2022-11-20T12:26:52;100560.56;;;8.02;100.00
11987;BME280;6053;51.382;6.768;2022-11-20T12:29:37;100550.53;;;7.31;100.00
11987;BME280;6053;51.382;6.768;2022-11-20T12:32:37;100552.44;;;7.17;100.00
11987;BME280;6053;51.382;6.768;2022-11-20T12:35:29;100550.72;;;7.81;100.00
11987;BME280;6053;51.382;6.768;2022-11-20T12:41:17;100544.28;;;8.00;100.00
11987;BME280;6053;51.382;6.768;2022-11-20T12:44:19;100544.59;;;7.86;100.00
11987;BME280;6053;51.382;6.768;2022-11-20T12:47:18;100537.38;;;8.23;100.00
11987;BME280;6053;51.382;6.768;2022-11-20T12:50:00;100531.88;;;7.46;100.00
11987;BME280;6053;51.382;6.768;2022-11-20T12:52:40;100527.13;;;7.67;100.00
11987;BME280;6053;51.382;6.768;2022-11-20T12:55:21;100520.78;;;8.36;100.00
11987;BME280;6053;51.382;6.768;2022-11-20T12:58:01;100520.88;;;8.55;100.00
11987;BME280;6053;51.382;6.768;2022-11-20T13:00:34;100513.38;;;8.12;100.00
11987;BME280;6053;51.382;6.768;2022-11-20T13:03:42;100506.34;;;8.47;100.00
11987;BME280;6053;51.382;6.768;2022-11-20T13:06:16;100497.63;;;7.04;100.00
11987;BME280;6053;51.382;6.768;2022-11-20T13:08:51;100494.50;;;7.52;100.00
11987;BME280;6053;51.382;6.768;2022-11-20T13:11:27;100483.63;;;7.25;100.00
11987;BME280;6053;51.382;6.768;2022-11-20T13:14:24;100478.91;;;6.94;100.00
11987;BME280;6053;51.382;6.768;2022-11-20T13:17:00;100469.53;;;7.60;100.00
11987;BME280;6053;51.382;6.768;2022-11-20T13:19:33;100465.75;;;7.93;100.00
11987;BME280;6053;51.382;6.768;2022-11-20T13:22:01;100472.16;;;7.42;100.00
11987;BME280;6053;51.382;6.768;2022-11-20T13:24:31;100470.16;;;7.62;100.00
11987;BME280;6053;51.382;6.768;2022-11-20T13:27:17;100468.03;;;7.96;100.00
11987;BME280;6053;51.382;6.768;2022-11-20T13:30:11;100466.09;;;8.28;100.00
11987;BME280;6053;51.382;6.768;2022-11-20T13:32:50;100456.53;;;8.62;100.00
11987;BME280;6053;51.382;6.768;2022-11-20T13:35:32;100443.22;;;8.59;100.00
11987;BME280;6053;51.382;6.768;2022-11-20T13:38:06;100451.06;;;8.06;100.00
11987;BME280;6053;51.382;6.768;2022-11-20T13:40:38;100444.66;;;8.37;100.00